Hankinson, North Dakota
Current Conditions -  °F | °C
As of 12:15 AM on Sunday 21 Dec 2014 (Local Time) from KBWP Reporting Station
Overcast Overcast  
Wind Chill: 22°   Ceiling: 500
Heat Index: 32°   Visibility: 4mi
Dew Point: 28°   Wind: 14mph
Humidity: 87%   Direction: 170°S
Pressure: 29.91"   Gusts: 17mph
Location:  46.07°N, 96.9°W
Report Text: KBWP 210615Z AUTO 17012G15KT 4SM OVC005 00/M02 A2991 RMK AO1
Loading
Personal Weather Stations






























Interactive Weather Map New forecast layout! Learn more

10-Day Weather Forecast

Advertisements
Track Severe Weather on mobile